Trevor, Wisconsin
Current Conditions -  °F | °C
As of 10:20 PM on Tuesday 25 Nov 2014 (Local Time) from KENW Reporting Station
Scattered Clouds Scattered Clouds  
Wind Chill: 11°   Ceiling: Unl
Heat Index: 18°   Visibility: 7mi
Dew Point: 14°   Wind: 5mph
Humidity: 84%   Direction: 190°S
Pressure: 30.18"   Gusts: NA
Location:  42.51°N, 88.12°W
Report Text: KENW 260420Z AUTO 19004KT 7SM SCT014 M08/M10 A3018 RMK AO2 T10781100
Loading
Personal Weather Stations






























Interactive Weather Map New forecast layout! Learn more

10-Day Weather Forecast

Advertisements
Track Severe Weather on mobile